createdAt,value
2022-08-03T00:00:50.898Z,3.60
2022-08-03T00:01:50.918Z,4.70
2022-08-03T00:02:51.151Z,5.20
2022-08-03T00:03:50.873Z,2.70
2022-08-03T00:04:50.857Z,2.40
2022-08-03T00:06:03.670Z,7.00
2022-08-03T00:06:51.873Z,3.10
2022-08-03T00:07:50.843Z,4.00
2022-08-03T00:08:50.819Z,4.20
2022-08-03T00:09:50.808Z,4.10
2022-08-03T00:10:50.815Z,5.90
2022-08-03T00:11:50.824Z,3.10
2022-08-03T00:12:50.786Z,2.80
2022-08-03T00:13:50.768Z,5.80
2022-08-03T00:14:51.770Z,4.10
2022-08-03T00:15:50.806Z,4.70
2022-08-03T00:16:50.766Z,4.90
2022-08-03T00:17:53.368Z,5.90
2022-08-03T00:18:50.739Z,5.60
2022-08-03T00:19:50.734Z,7.10
2022-08-03T00:20:50.773Z,7.50
2022-08-03T00:22:24.946Z,6.70
2022-08-03T00:22:51.756Z,4.50
2022-08-03T00:23:51.312Z,4.20
2022-08-03T00:24:50.691Z,4.60
2022-08-03T00:25:50.679Z,7.20
2022-08-03T00:26:50.700Z,4.80
2022-08-03T00:27:50.905Z,5.90
2022-08-03T00:28:50.670Z,6.60
2022-08-03T00:29:59.609Z,4.20
2022-08-03T00:30:51.673Z,8.20
2022-08-03T00:31:52.251Z,4.90
2022-08-03T00:32:51.625Z,4.40
2022-08-03T00:33:59.482Z,6.40
2022-08-03T00:34:57.138Z,6.50
2022-08-03T00:35:51.603Z,4.90
2022-08-03T00:36:50.610Z,8.30
2022-08-03T00:37:50.593Z,5.60
2022-08-03T00:38:50.581Z,9.10
2022-08-03T00:39:50.551Z,7.20
2022-08-03T00:40:51.559Z,5.20
2022-08-03T00:41:50.577Z,4.70
2022-08-03T00:42:50.536Z,8.30
2022-08-03T00:43:50.533Z,7.70
2022-08-03T00:44:50.524Z,5.10
2022-08-03T00:45:50.510Z,5.50
2022-08-03T00:46:50.547Z,6.60
2022-08-03T00:47:50.516Z,5.10
2022-08-03T00:48:50.492Z,5.20
2022-08-03T00:49:50.492Z,8.80
2022-08-03T00:50:50.471Z,9.90
2022-08-03T00:51:50.499Z,6.10
2022-08-03T00:52:50.453Z,6.30
2022-08-03T00:53:50.463Z,7.60
2022-08-03T00:54:50.433Z,9.10
2022-08-03T00:55:50.450Z,5.90
2022-08-03T00:56:59.269Z,6.60
2022-08-03T00:57:51.416Z,6.50
2022-08-03T00:58:50.404Z,6.80
2022-08-03T00:59:50.396Z,6.70
2022-08-03T01:00:50.442Z,6.30
2022-08-03T01:01:50.556Z,8.30
2022-08-03T01:02:50.377Z,5.50
2022-08-03T01:03:50.393Z,6.70
2022-08-03T01:04:50.380Z,7.20
2022-08-03T01:05:50.357Z,5.90
2022-08-03T01:06:50.388Z,5.50
2022-08-03T01:07:50.354Z,6.50
2022-08-03T01:08:50.328Z,4.90
2022-08-03T01:09:50.313Z,6.90
2022-08-03T01:10:50.328Z,4.50
2022-08-03T01:11:59.907Z,4.40
2022-08-03T01:12:51.285Z,4.00
2022-08-03T01:14:01.391Z,5.10
2022-08-03T01:14:51.277Z,5.80
2022-08-03T01:15:50.267Z,5.40
2022-08-03T01:16:50.281Z,4.40
2022-08-03T01:17:50.245Z,5.10
2022-08-03T01:18:50.239Z,5.50
2022-08-03T01:19:50.229Z,7.40
2022-08-03T01:20:50.220Z,6.10
2022-08-03T01:21:50.249Z,5.80
2022-08-03T01:22:50.209Z,7.50
2022-08-03T01:23:50.217Z,5.20
2022-08-03T01:24:50.205Z,5.90
2022-08-03T01:25:54.189Z,15.90
2022-08-03T01:26:50.171Z,5.60
2022-08-03T01:28:05.500Z,7.80
2022-08-03T01:28:50.150Z,6.40
2022-08-03T01:29:50.156Z,7.40
2022-08-03T01:30:50.173Z,8.60
2022-08-03T01:32:58.669Z,6.20
2022-08-03T01:32:59.599Z,6.20
2022-08-03T01:33:51.112Z,5.70
2022-08-03T01:34:50.103Z,6.10
2022-08-03T01:35:50.097Z,6.30
2022-08-03T01:36:50.129Z,7.40
2022-08-03T01:37:50.082Z,5.50
2022-08-03T01:38:50.328Z,4.00
2022-08-03T01:39:50.065Z,5.60
2022-08-03T01:40:50.056Z,6.50
2022-08-03T01:41:50.076Z,4.80
2022-08-03T01:42:50.037Z,4.80
2022-08-03T01:44:18.113Z,7.40
2022-08-03T01:44:51.018Z,6.50
2022-08-03T01:45:50.008Z,7.00
2022-08-03T01:46:50.028Z,8.80
2022-08-03T01:47:49.998Z,7.40
2022-08-03T01:48:49.988Z,6.60
2022-08-03T01:49:50.037Z,6.70
2022-08-03T01:50:49.966Z,6.20
2022-08-03T01:52:03.162Z,8.10
2022-08-03T01:52:50.952Z,8.70
2022-08-03T01:53:49.938Z,4.80
2022-08-03T01:54:49.932Z,7.70
2022-08-03T01:55:49.931Z,7.30
2022-08-03T01:56:49.960Z,6.60
2022-08-03T01:58:06.108Z,6.80
2022-08-03T01:58:50.911Z,6.90
2022-08-03T01:59:49.893Z,7.70
2022-08-03T02:00:49.922Z,5.80
2022-08-03T02:02:28.326Z,7.80
2022-08-03T02:02:50.898Z,5.30
2022-08-03T02:04:00.845Z,7.80
2022-08-03T02:04:50.849Z,5.80
2022-08-03T02:05:57.195Z,7.10
2022-08-03T02:07:02.039Z,6.20
2022-08-03T02:07:50.825Z,5.00
2022-08-03T02:08:49.833Z,6.00
2022-08-03T02:09:49.805Z,6.40
2022-08-03T02:10:49.794Z,4.80
2022-08-03T02:11:49.820Z,5.20
2022-08-03T02:12:51.226Z,5.20
2022-08-03T02:13:50.779Z,5.60
2022-08-03T02:14:49.767Z,4.40
2022-08-03T02:15:49.777Z,6.60
2022-08-03T02:16:49.778Z,6.10
2022-08-03T02:17:49.740Z,4.90
2022-08-03T02:18:49.729Z,4.80
2022-08-03T02:19:49.720Z,7.30
2022-08-03T02:20:49.715Z,4.10
2022-08-03T02:21:57.448Z,5.60
2022-08-03T02:22:50.697Z,6.50
2022-08-03T02:23:49.692Z,6.40
2022-08-03T02:24:51.242Z,9.20
2022-08-03T02:25:49.658Z,5.50
2022-08-03T02:26:50.693Z,5.30
2022-08-03T02:27:49.669Z,4.50
2022-08-03T02:28:49.649Z,6.90
2022-08-03T02:29:49.639Z,7.00
2022-08-03T02:30:51.829Z,5.70
2022-08-03T02:31:49.656Z,6.30
2022-08-03T02:32:49.622Z,5.70
2022-08-03T02:33:49.610Z,6.40
2022-08-03T02:34:49.597Z,5.70
2022-08-03T02:35:49.592Z,5.20
2022-08-03T02:36:49.618Z,6.50
2022-08-03T02:37:50.047Z,5.60
2022-08-03T02:38:49.562Z,6.20
2022-08-03T02:39:49.561Z,5.00
2022-08-03T02:40:49.551Z,5.40
2022-08-03T02:41:49.581Z,5.10
2022-08-03T02:42:49.556Z,4.50
2022-08-03T02:44:07.180Z,5.70
2022-08-03T02:44:50.525Z,5.90
2022-08-03T02:45:49.503Z,5.10
2022-08-03T02:46:49.524Z,6.10
2022-08-03T02:47:54.388Z,4.50
2022-08-03T02:48:50.485Z,5.60
2022-08-03T02:49:51.525Z,4.90
2022-08-03T02:50:49.463Z,8.50
2022-08-03T02:51:49.481Z,7.70
2022-08-03T02:52:49.446Z,6.90
2022-08-03T02:53:49.436Z,5.70
2022-08-03T02:54:49.428Z,8.50
2022-08-03T02:55:49.418Z,9.20
2022-08-03T02:56:49.437Z,5.60
2022-08-03T02:57:49.402Z,4.90
2022-08-03T02:58:49.392Z,6.70
2022-08-03T02:59:49.379Z,5.80
2022-08-03T03:00:49.476Z,8.60
2022-08-03T03:01:49.396Z,5.50
2022-08-03T03:02:49.357Z,6.00
2022-08-03T03:03:49.353Z,4.80
2022-08-03T03:05:50.884Z,6.00
2022-08-03T03:05:54.775Z,9.60
2022-08-03T03:06:50.366Z,6.50
2022-08-03T03:07:52.972Z,5.80
2022-08-03T03:08:49.309Z,6.70
2022-08-03T03:09:49.302Z,5.90
2022-08-03T03:10:49.299Z,10.70
2022-08-03T03:11:50.304Z,6.90
2022-08-03T03:12:49.272Z,7.30
2022-08-03T03:13:49.265Z,8.70
2022-08-03T03:14:49.268Z,10.10
2022-08-03T03:15:49.246Z,7.80
2022-08-03T03:16:50.612Z,10.60
2022-08-03T03:17:49.228Z,7.30
2022-08-03T03:18:49.217Z,6.60
2022-08-03T03:19:49.212Z,7.80
2022-08-03T03:20:49.212Z,7.60
2022-08-03T03:21:49.228Z,9.60
2022-08-03T03:22:49.196Z,6.10
2022-08-03T03:23:49.178Z,7.30
2022-08-03T03:24:49.169Z,6.50
2022-08-03T03:25:49.172Z,5.60
2022-08-03T03:26:49.185Z,5.60
2022-08-03T03:27:50.806Z,8.00
2022-08-03T03:28:49.136Z,12.10
2022-08-03T03:29:49.229Z,6.10
2022-08-03T03:30:52.715Z,7.30
2022-08-03T03:31:50.140Z,8.80
2022-08-03T03:32:49.099Z,7.30
2022-08-03T03:33:49.091Z,5.70
2022-08-03T03:34:49.079Z,7.60
2022-08-03T03:35:49.075Z,7.40
2022-08-03T03:36:49.094Z,5.60
2022-08-03T03:37:49.060Z,5.50
2022-08-03T03:38:49.055Z,9.10
2022-08-03T03:39:49.044Z,7.30
2022-08-03T03:40:49.034Z,5.60
2022-08-03T03:41:49.057Z,9.40
2022-08-03T03:42:49.023Z,6.10
2022-08-03T03:44:31.539Z,6.40
2022-08-03T03:44:49.001Z,7.00
2022-08-03T03:45:48.996Z,6.40
2022-08-03T03:46:49.010Z,6.90
2022-08-03T03:47:48.977Z,7.50
2022-08-03T03:48:48.965Z,7.60
2022-08-03T03:49:48.958Z,6.60
2022-08-03T03:50:48.985Z,7.70
2022-08-03T03:51:48.994Z,6.40
2022-08-03T03:52:48.940Z,6.70
2022-08-03T03:53:48.947Z,9.60
2022-08-03T03:54:48.913Z,8.10
2022-08-03T03:55:59.627Z,7.00
2022-08-03T03:56:49.930Z,6.60
2022-08-03T03:57:48.895Z,5.20
2022-08-03T03:58:48.892Z,5.80
2022-08-03T03:59:48.871Z,7.30
2022-08-03T04:00:48.875Z,6.40
2022-08-03T04:01:48.885Z,5.10
2022-08-03T04:02:49.848Z,5.50
2022-08-03T04:03:48.840Z,7.00
2022-08-03T04:04:48.833Z,7.10
2022-08-03T04:05:48.816Z,7.70
2022-08-03T04:06:48.844Z,7.50
2022-08-03T04:07:48.810Z,7.90
2022-08-03T04:08:49.377Z,6.50
2022-08-03T04:09:48.785Z,9.80
2022-08-03T04:10:48.791Z,6.10
2022-08-03T04:11:48.828Z,9.10
2022-08-03T04:12:50.615Z,7.20
2022-08-03T04:13:48.760Z,6.30
2022-08-03T04:14:48.750Z,7.10
2022-08-03T04:15:48.741Z,6.40
2022-08-03T04:16:48.759Z,7.20
2022-08-03T04:17:48.707Z,6.20
2022-08-03T04:18:49.709Z,5.60
2022-08-03T04:19:48.704Z,6.10
2022-08-03T04:20:48.701Z,5.60
2022-08-03T04:21:48.745Z,7.50
2022-08-03T04:22:48.688Z,9.00
2022-08-03T04:23:48.686Z,5.70
2022-08-03T04:24:48.665Z,5.30
2022-08-03T04:25:48.669Z,5.80
2022-08-03T04:26:52.599Z,8.90
2022-08-03T04:28:08.045Z,7.70
2022-08-03T04:28:49.629Z,6.50
2022-08-03T04:29:48.852Z,7.20
2022-08-03T04:30:48.627Z,6.20
2022-08-03T04:31:48.611Z,7.10
2022-08-03T04:32:48.664Z,5.20
2022-08-03T04:33:48.623Z,5.90
2022-08-03T04:34:48.585Z,6.00
2022-08-03T04:36:01.359Z,6.70
2022-08-03T04:36:49.583Z,5.30
2022-08-03T04:37:48.595Z,6.30
2022-08-03T04:38:48.562Z,9.40
2022-08-03T04:39:48.545Z,5.00
2022-08-03T04:40:48.549Z,6.20
2022-08-03T04:42:06.955Z,4.70
2022-08-03T04:42:49.550Z,4.80
2022-08-03T04:43:48.518Z,5.70
2022-08-03T04:44:48.529Z,8.60
2022-08-03T04:45:48.577Z,5.80
2022-08-03T04:46:50.520Z,5.30
2022-08-03T04:47:48.512Z,7.90
2022-08-03T04:48:48.475Z,7.00
2022-08-03T04:49:48.465Z,5.70
2022-08-03T04:50:48.461Z,5.30
2022-08-03T04:51:48.445Z,8.00
2022-08-03T04:52:48.469Z,5.10
2022-08-03T04:53:48.432Z,5.40
2022-08-03T04:54:50.615Z,6.70
2022-08-03T04:55:48.419Z,4.70
2022-08-03T04:56:48.399Z,5.70
2022-08-03T04:57:57.468Z,5.60
2022-08-03T04:58:49.390Z,6.50
2022-08-03T04:59:48.380Z,5.90
2022-08-03T05:00:48.386Z,5.60
2022-08-03T05:01:48.434Z,5.80
2022-08-03T05:02:48.388Z,6.40
2022-08-03T05:03:48.346Z,5.60
2022-08-03T05:04:48.339Z,5.30
2022-08-03T05:05:50.101Z,5.10
2022-08-03T05:06:54.118Z,5.40
2022-08-03T05:07:49.342Z,5.20
2022-08-03T05:08:50.775Z,6.20
2022-08-03T05:09:50.679Z,6.60
2022-08-03T05:10:48.296Z,4.40
2022-08-03T05:11:48.278Z,5.70
2022-08-03T05:12:48.320Z,5.00
2022-08-03T05:13:48.262Z,5.50
2022-08-03T05:14:48.259Z,6.80
2022-08-03T05:15:48.243Z,6.50
2022-08-03T05:16:48.238Z,5.60
2022-08-03T05:17:48.270Z,6.80
2022-08-03T05:18:48.221Z,6.40
2022-08-03T05:19:48.212Z,6.50
2022-08-03T05:20:48.206Z,4.50
2022-08-03T05:21:52.548Z,4.30
2022-08-03T05:22:48.217Z,4.60
2022-08-03T05:23:48.196Z,4.40
2022-08-03T05:24:48.202Z,6.70
2022-08-03T05:25:50.089Z,4.60
2022-08-03T05:26:58.980Z,4.90
2022-08-03T05:27:49.194Z,4.90
2022-08-03T05:28:51.263Z,4.90
2022-08-03T05:29:48.141Z,4.20
2022-08-03T05:30:48.118Z,5.10
2022-08-03T05:31:48.147Z,5.00
2022-08-03T05:32:48.134Z,5.10
2022-08-03T05:33:48.093Z,5.80
2022-08-03T05:34:48.094Z,7.60
2022-08-03T05:36:00.608Z,4.40
2022-08-03T05:36:49.101Z,5.70
2022-08-03T05:37:54.872Z,5.70
2022-08-03T05:38:49.057Z,7.20
2022-08-03T05:39:48.059Z,4.80
2022-08-03T05:40:57.341Z,4.30
2022-08-03T05:41:49.036Z,4.40
2022-08-03T05:42:48.057Z,5.00
2022-08-03T05:43:48.030Z,4.20
2022-08-03T05:44:48.003Z,4.90
2022-08-03T05:45:48.002Z,6.20
2022-08-03T05:46:48.986Z,5.80
2022-08-03T05:47:47.982Z,5.20
2022-08-03T05:48:48.002Z,4.00
2022-08-03T05:49:47.970Z,11.00
2022-08-03T05:50:47.954Z,6.30
2022-08-03T05:51:47.946Z,9.60
2022-08-03T05:52:48.934Z,5.90
2022-08-03T05:53:47.963Z,6.10
2022-08-03T05:54:56.269Z,6.80
2022-08-03T05:55:52.653Z,4.90
2022-08-03T05:56:48.903Z,5.90
2022-08-03T05:57:47.911Z,6.40
2022-08-03T05:58:48.096Z,5.80
2022-08-03T05:59:57.710Z,4.70
2022-08-03T06:00:48.865Z,6.60
2022-08-03T06:01:47.957Z,5.40
2022-08-03T06:02:47.918Z,7.50
2022-08-03T06:03:47.887Z,5.50
2022-08-03T06:04:47.832Z,7.20
2022-08-03T06:05:58.322Z,8.70
2022-08-03T06:06:48.829Z,4.60
2022-08-03T06:07:47.806Z,6.10
2022-08-03T06:08:47.822Z,7.50
2022-08-03T06:10:36.451Z,5.70
2022-08-03T06:10:48.772Z,5.90
2022-08-03T06:11:48.779Z,7.60
2022-08-03T06:12:47.770Z,7.20
2022-08-03T06:13:47.793Z,6.10
2022-08-03T06:14:47.758Z,5.80
2022-08-03T06:15:47.748Z,5.50
2022-08-03T06:16:47.735Z,4.90
2022-08-03T06:17:47.735Z,7.10
2022-08-03T06:18:47.761Z,8.60
2022-08-03T06:19:47.719Z,5.60
2022-08-03T06:20:49.298Z,7.60
2022-08-03T06:21:47.700Z,5.60
2022-08-03T06:22:47.710Z,6.40
2022-08-03T06:23:54.157Z,6.80
2022-08-03T06:25:22.093Z,6.30
2022-08-03T06:25:47.666Z,4.10
2022-08-03T06:26:47.653Z,10.00
2022-08-03T06:27:47.640Z,6.90
2022-08-03T06:28:51.751Z,7.70
2022-08-03T06:29:48.836Z,8.40
2022-08-03T06:30:47.784Z,6.10
2022-08-03T06:31:47.624Z,5.10
2022-08-03T06:32:52.007Z,7.70
2022-08-03T06:34:30.060Z,6.90
2022-08-03T06:34:48.593Z,5.30
2022-08-03T06:35:47.583Z,7.00
2022-08-03T06:36:47.567Z,5.90
2022-08-03T06:37:48.573Z,5.10
2022-08-03T06:38:47.593Z,5.20
2022-08-03T06:39:47.547Z,4.90
2022-08-03T06:40:47.539Z,6.50
2022-08-03T06:41:47.535Z,6.30
2022-08-03T06:42:47.524Z,7.50
2022-08-03T06:44:03.216Z,4.40
2022-08-03T06:44:48.523Z,4.80
2022-08-03T06:45:47.698Z,7.20
2022-08-03T06:46:47.499Z,5.40
2022-08-03T06:47:47.482Z,4.60
2022-08-03T06:48:48.514Z,5.40
2022-08-03T06:50:12.263Z,6.50
2022-08-03T06:50:48.464Z,8.00
2022-08-03T06:52:05.369Z,7.70
2022-08-03T06:52:48.448Z,3.30
2022-08-03T06:53:47.467Z,6.60
2022-08-03T06:54:47.431Z,4.90
2022-08-03T06:55:51.127Z,7.90
2022-08-03T06:56:49.405Z,5.80
2022-08-03T06:57:48.406Z,5.00
2022-08-03T06:58:47.429Z,5.40
2022-08-03T07:00:10.409Z,6.40
2022-08-03T07:00:48.389Z,6.20
2022-08-03T07:01:47.447Z,6.80
2022-08-03T07:02:47.377Z,6.30
2022-08-03T07:03:52.389Z,4.50
2022-08-03T07:04:48.351Z,7.90
2022-08-03T07:05:47.394Z,6.30
2022-08-03T07:07:02.279Z,3.70
2022-08-03T07:08:02.791Z,4.60
2022-08-03T07:08:50.562Z,4.70
2022-08-03T07:09:57.100Z,3.90
2022-08-03T07:10:48.304Z,5.00
2022-08-03T07:11:47.300Z,4.70
2022-08-03T07:12:52.758Z,6.40
2022-08-03T07:13:48.318Z,4.70
2022-08-03T07:14:47.279Z,5.10
2022-08-03T07:15:55.293Z,7.00
2022-08-03T07:16:48.264Z,7.20
2022-08-03T07:17:47.251Z,8.00
2022-08-03T07:18:47.280Z,4.50
2022-08-03T07:19:47.247Z,5.20
2022-08-03T07:20:47.241Z,7.10
2022-08-03T07:21:47.231Z,4.50
2022-08-03T07:22:47.223Z,6.70
2022-08-03T07:23:47.260Z,2.80
2022-08-03T07:24:47.210Z,6.30
2022-08-03T07:25:47.200Z,2.60
2022-08-03T07:26:47.184Z,7.50
2022-08-03T07:27:51.637Z,8.00
2022-08-03T07:28:48.197Z,4.90
2022-08-03T07:29:47.181Z,7.00
2022-08-03T07:30:47.156Z,2.60
2022-08-03T07:31:47.143Z,3.60
2022-08-03T07:32:50.482Z,6.10
2022-08-03T07:33:47.156Z,4.80
2022-08-03T07:34:47.121Z,3.70
2022-08-03T07:35:47.113Z,2.70
2022-08-03T07:36:47.142Z,2.40
2022-08-03T07:37:54.394Z,6.60
2022-08-03T07:38:48.114Z,2.20
2022-08-03T07:39:47.082Z,5.00
2022-08-03T07:40:47.132Z,6.00
2022-08-03T07:41:47.064Z,4.00
2022-08-03T07:42:47.055Z,2.40
2022-08-03T07:43:47.090Z,3.30
2022-08-03T07:44:47.047Z,3.20
2022-08-03T07:45:47.033Z,2.00
2022-08-03T07:46:47.036Z,2.60
2022-08-03T07:47:53.926Z,2.50
2022-08-03T07:48:48.041Z,2.80
2022-08-03T07:49:47.003Z,5.40
2022-08-03T07:50:46.998Z,2.10
2022-08-03T07:51:47.005Z,3.00
2022-08-03T07:52:46.986Z,2.60
2022-08-03T07:53:47.853Z,2.50
2022-08-03T07:54:46.978Z,2.40
2022-08-03T07:55:46.973Z,4.60
2022-08-03T07:56:46.952Z,3.20
2022-08-03T07:57:46.942Z,2.70
2022-08-03T07:58:46.969Z,3.40
2022-08-03T08:00:01.420Z,2.40
2022-08-03T08:00:47.999Z,2.50
2022-08-03T08:01:46.975Z,2.30
2022-08-03T08:02:46.918Z,3.50
2022-08-03T08:03:52.672Z,3.80
2022-08-03T08:04:47.896Z,5.70
2022-08-03T08:05:46.900Z,1.70
2022-08-03T08:06:46.885Z,6.50
2022-08-03T08:07:51.102Z,3.50
2022-08-03T08:08:47.889Z,3.70
2022-08-03T08:09:46.856Z,5.00
2022-08-03T08:10:58.177Z,3.20
2022-08-03T08:11:47.842Z,2.30
2022-08-03T08:12:46.833Z,5.20
2022-08-03T08:13:46.830Z,1.70
2022-08-03T08:14:46.865Z,2.60
2022-08-03T08:15:46.813Z,2.80
2022-08-03T08:16:46.803Z,4.80
2022-08-03T08:17:46.794Z,2.90
2022-08-03T08:18:46.794Z,4.30
2022-08-03T08:19:53.169Z,3.00
2022-08-03T08:20:47.780Z,3.20
2022-08-03T08:21:53.484Z,3.10
2022-08-03T08:22:47.753Z,4.00
2022-08-03T08:23:53.745Z,3.00
2022-08-03T08:24:48.776Z,4.60
2022-08-03T08:25:46.737Z,3.20
2022-08-03T08:26:46.729Z,2.30
2022-08-03T08:28:29.975Z,3.70
2022-08-03T08:28:47.704Z,2.20
2022-08-03T08:29:54.517Z,2.10
2022-08-03T08:30:47.702Z,2.70
2022-08-03T08:31:46.718Z,2.70
2022-08-03T08:32:46.692Z,3.20
2022-08-03T08:34:04.115Z,4.40
2022-08-03T08:34:48.714Z,4.20
2022-08-03T08:35:46.666Z,2.00
2022-08-03T08:36:46.656Z,3.00
2022-08-03T08:37:50.919Z,2.30
2022-08-03T08:38:46.647Z,1.40
2022-08-03T08:39:46.677Z,3.00
2022-08-03T08:40:46.657Z,3.70
2022-08-03T08:41:49.603Z,2.50
2022-08-03T08:42:58.098Z,3.20
2022-08-03T08:43:48.608Z,1.90
2022-08-03T08:44:46.639Z,3.90
2022-08-03T08:45:46.598Z,1.70
2022-08-03T08:46:46.589Z,2.70
2022-08-03T08:47:50.811Z,2.40
2022-08-03T08:48:47.572Z,3.80
2022-08-03T08:50:08.492Z,3.50
2022-08-03T08:50:48.561Z,5.60
2022-08-03T08:51:59.657Z,1.60
2022-08-03T08:52:47.554Z,2.90
2022-08-03T08:53:46.544Z,4.10
2022-08-03T08:54:46.559Z,3.50
2022-08-03T08:55:58.557Z,4.90
2022-08-03T08:56:47.515Z,4.10
2022-08-03T08:57:46.508Z,1.60
2022-08-03T08:58:47.580Z,2.70
2022-08-03T08:59:48.288Z,3.20
2022-08-03T09:00:46.533Z,2.10
2022-08-03T09:01:46.486Z,4.10
2022-08-03T09:02:46.485Z,3.70
2022-08-03T09:03:46.474Z,1.70
2022-08-03T09:04:46.503Z,3.70
2022-08-03T09:05:55.813Z,2.60
2022-08-03T09:07:19.321Z,2.10
2022-08-03T09:07:48.443Z,3.30
2022-08-03T09:08:46.437Z,1.50
2022-08-03T09:10:10.983Z,1.50
2022-08-03T09:10:47.423Z,3.10
2022-08-03T09:12:00.885Z,4.00
2022-08-03T09:12:47.410Z,3.10
2022-08-03T09:13:46.412Z,2.60
2022-08-03T09:15:07.363Z,1.30
2022-08-03T09:15:57.199Z,2.90
2022-08-03T09:16:47.387Z,1.90
2022-08-03T09:17:50.649Z,1.90
2022-08-03T09:18:47.374Z,2.00
2022-08-03T09:20:03.712Z,1.50
2022-08-03T09:20:47.388Z,3.80
2022-08-03T09:21:46.347Z,1.90
2022-08-03T09:22:46.339Z,2.60
2022-08-03T09:24:01.619Z,2.10
2022-08-03T09:25:03.192Z,2.00
2022-08-03T09:25:48.321Z,1.30
2022-08-03T09:26:46.319Z,2.10
2022-08-03T09:27:46.311Z,1.50
2022-08-03T09:29:01.165Z,2.60
2022-08-03T09:29:48.329Z,4.60
2022-08-03T09:30:46.291Z,3.40
2022-08-03T09:31:46.554Z,2.80
2022-08-03T09:32:46.276Z,3.70
2022-08-03T09:33:46.275Z,2.50
2022-08-03T09:34:46.270Z,3.10
2022-08-03T09:35:54.820Z,4.50
2022-08-03T09:36:48.273Z,2.90
2022-08-03T09:38:12.609Z,2.90
2022-08-03T09:38:47.254Z,2.80
2022-08-03T09:39:46.235Z,2.50
2022-08-03T09:40:46.312Z,2.50
2022-08-03T09:41:46.220Z,1.70
2022-08-03T09:42:46.213Z,3.10
2022-08-03T09:43:46.218Z,2.70
2022-08-03T09:44:46.215Z,3.10
2022-08-03T09:45:46.222Z,1.40
2022-08-03T09:46:46.186Z,1.50
2022-08-03T09:47:46.192Z,2.30
2022-08-03T09:48:46.176Z,2.10
2022-08-03T09:49:46.183Z,3.20
2022-08-03T09:50:58.706Z,4.00
2022-08-03T09:52:37.849Z,2.90
2022-08-03T09:52:49.881Z,1.50
2022-08-03T09:53:59.729Z,3.20
2022-08-03T09:54:47.140Z,1.40
2022-08-03T09:56:34.217Z,1.90
2022-08-03T09:56:47.124Z,2.70
2022-08-03T09:57:46.128Z,2.50
2022-08-03T09:58:46.124Z,2.70
2022-08-03T09:59:46.114Z,2.70
2022-08-03T10:00:46.210Z,1.40
2022-08-03T10:01:46.150Z,5.40
2022-08-03T10:02:46.086Z,1.50
2022-08-03T10:04:03.481Z,2.10
2022-08-03T10:04:47.080Z,3.20
2022-08-03T10:05:46.101Z,2.60
2022-08-03T10:06:46.066Z,2.60
2022-08-03T10:07:46.378Z,2.50
2022-08-03T10:08:46.047Z,1.80
2022-08-03T10:09:46.047Z,1.50
2022-08-03T10:10:46.065Z,2.80
2022-08-03T10:11:46.029Z,4.00
2022-08-03T10:12:46.022Z,5.00
2022-08-03T10:13:46.017Z,1.80
2022-08-03T10:14:46.019Z,2.60
2022-08-03T10:16:23.069Z,4.50
2022-08-03T10:16:47.007Z,2.60
2022-08-03T10:17:46.001Z,2.10
2022-08-03T10:18:45.977Z,2.10
2022-08-03T10:19:45.979Z,1.60
2022-08-03T10:20:46.000Z,0.90
2022-08-03T10:21:45.972Z,3.60
2022-08-03T10:22:45.961Z,2.00
2022-08-03T10:23:45.956Z,4.80
2022-08-03T10:24:45.951Z,1.90
2022-08-03T10:25:45.976Z,3.20
2022-08-03T10:26:49.892Z,2.10
2022-08-03T10:27:45.934Z,1.70
2022-08-03T10:28:45.923Z,1.80
2022-08-03T10:30:00.926Z,3.60
2022-08-03T10:31:17.845Z,2.10
2022-08-03T10:31:57.375Z,5.50
2022-08-03T10:32:46.901Z,1.40
2022-08-03T10:33:51.912Z,3.80
2022-08-03T10:34:46.890Z,2.10
2022-08-03T10:35:45.912Z,2.50
2022-08-03T10:36:45.876Z,2.40
2022-08-03T10:37:56.655Z,1.80
2022-08-03T10:38:46.870Z,1.50
2022-08-03T10:39:45.861Z,5.00
2022-08-03T10:40:49.411Z,1.90
2022-08-03T10:41:46.844Z,2.50
2022-08-03T10:42:45.845Z,1.80
2022-08-03T10:43:45.836Z,2.00
2022-08-03T10:44:45.830Z,1.20
2022-08-03T10:45:45.866Z,2.50
2022-08-03T10:46:46.815Z,2.10
2022-08-03T10:47:45.812Z,2.40
2022-08-03T10:48:45.804Z,2.20
2022-08-03T10:49:45.851Z,1.80
2022-08-03T10:50:45.823Z,1.70
2022-08-03T10:51:45.803Z,4.20
2022-08-03T10:52:49.157Z,2.40
2022-08-03T10:53:54.884Z,1.80
2022-08-03T10:54:46.768Z,2.80
2022-08-03T10:55:45.763Z,2.80
2022-08-03T10:56:48.686Z,1.80
2022-08-03T10:57:45.833Z,3.60
2022-08-03T10:58:57.250Z,1.90
2022-08-03T10:59:46.783Z,2.40
2022-08-03T11:00:45.754Z,1.90
2022-08-03T11:01:58.890Z,1.60
2022-08-03T11:02:46.711Z,1.90
2022-08-03T11:03:45.706Z,1.90
2022-08-03T11:04:45.709Z,3.40
2022-08-03T11:05:45.699Z,4.60
2022-08-03T11:06:45.721Z,2.90
2022-08-03T11:07:45.687Z,1.60
2022-08-03T11:08:46.682Z,3.80
2022-08-03T11:09:45.678Z,1.30
2022-08-03T11:10:45.696Z,2.70
2022-08-03T11:11:45.666Z,1.70
2022-08-03T11:12:45.672Z,1.20
2022-08-03T11:13:45.647Z,3.90
2022-08-03T11:14:45.639Z,1.70
2022-08-03T11:15:45.666Z,2.60
2022-08-03T11:16:45.629Z,3.20
2022-08-03T11:17:55.517Z,3.00
2022-08-03T11:18:46.619Z,1.40
2022-08-03T11:19:56.948Z,1.60
2022-08-03T11:20:46.634Z,3.00
2022-08-03T11:21:45.599Z,2.60
2022-08-03T11:22:45.592Z,3.30
2022-08-03T11:24:02.889Z,1.50
2022-08-03T11:24:46.586Z,4.50
2022-08-03T11:25:53.758Z,4.30
2022-08-03T11:26:46.572Z,2.50
2022-08-03T11:27:45.565Z,1.70
2022-08-03T11:28:45.561Z,2.00
2022-08-03T11:29:45.565Z,2.00
2022-08-03T11:30:45.582Z,2.30
2022-08-03T11:31:50.607Z,2.60
2022-08-03T11:32:48.681Z,1.70
2022-08-03T11:33:45.527Z,17.20
2022-08-03T11:34:45.521Z,4.20
2022-08-03T11:35:45.553Z,4.60
2022-08-03T11:36:45.507Z,5.20
2022-08-03T11:38:03.058Z,2.60
2022-08-03T11:38:46.497Z,2.30
2022-08-03T11:39:45.484Z,3.10
2022-08-03T11:40:45.522Z,6.80
2022-08-03T11:41:45.545Z,5.40
2022-08-03T11:42:45.468Z,17.20
2022-08-03T11:43:45.482Z,32.30
2022-08-03T11:44:46.865Z,55.10
2022-08-03T11:45:45.452Z,12.70
2022-08-03T11:46:45.468Z,12.60
2022-08-03T11:47:51.106Z,4.00
2022-08-03T11:48:46.428Z,3.30
2022-08-03T11:49:45.421Z,2.70
2022-08-03T11:50:45.423Z,2.90
2022-08-03T11:51:45.446Z,3.90
2022-08-03T11:52:45.404Z,1.60
2022-08-03T11:53:45.398Z,2.90
2022-08-03T11:54:45.404Z,2.60
2022-08-03T11:55:45.389Z,1.40
2022-08-03T11:56:45.438Z,1.90
2022-08-03T11:59:01.932Z,1.50
2022-08-03T11:59:10.816Z,1.30
2022-08-03T11:59:46.367Z,2.10
2022-08-03T12:00:45.357Z,1.80
2022-08-03T12:01:45.392Z,1.20
2022-08-03T12:02:45.358Z,3.00
2022-08-03T12:03:46.040Z,1.70
2022-08-03T12:04:45.331Z,1.20
2022-08-03T12:05:51.226Z,2.00
2022-08-03T12:06:47.410Z,4.20
2022-08-03T12:08:04.209Z,1.40
2022-08-03T12:08:46.303Z,2.70
2022-08-03T12:09:45.298Z,1.40
2022-08-03T12:10:45.327Z,1.50
2022-08-03T12:11:59.632Z,2.40
2022-08-03T12:12:46.821Z,2.50
2022-08-03T12:14:45.382Z,2.30
2022-08-03T12:14:51.749Z,1.50
2022-08-03T12:15:47.295Z,2.50
2022-08-03T12:16:45.262Z,1.60
2022-08-03T12:17:45.250Z,1.70
2022-08-03T12:18:45.241Z,1.90
2022-08-03T12:19:45.238Z,2.80
2022-08-03T12:20:45.267Z,1.20
2022-08-03T12:21:45.230Z,1.90
2022-08-03T12:22:46.214Z,2.40
2022-08-03T12:23:45.211Z,2.50
2022-08-03T12:24:46.763Z,1.40
2022-08-03T12:25:46.242Z,1.80
2022-08-03T12:26:45.189Z,1.60
2022-08-03T12:27:46.188Z,1.70
2022-08-03T12:28:49.522Z,3.60
2022-08-03T12:29:57.054Z,2.40
2022-08-03T12:30:46.507Z,2.70
2022-08-03T12:31:45.165Z,3.60
2022-08-03T12:32:45.153Z,1.90
2022-08-03T12:33:45.145Z,2.00
2022-08-03T12:34:47.232Z,6.60
2022-08-03T12:35:52.352Z,1.50
2022-08-03T12:36:46.125Z,3.90
2022-08-03T12:37:45.111Z,2.60
2022-08-03T12:38:45.118Z,2.50
2022-08-03T12:40:02.107Z,1.60
2022-08-03T12:40:46.129Z,2.00
2022-08-03T12:41:45.099Z,1.90
2022-08-03T12:42:45.089Z,1.30
2022-08-03T12:43:45.086Z,1.20
2022-08-03T12:44:45.076Z,4.20
2022-08-03T12:45:45.102Z,3.40
2022-08-03T12:46:47.956Z,1.20
2022-08-03T12:47:46.060Z,2.60
2022-08-03T12:48:45.057Z,3.20
2022-08-03T12:49:45.042Z,1.40
2022-08-03T12:50:45.069Z,2.30
2022-08-03T12:51:45.034Z,2.90
2022-08-03T12:52:45.037Z,1.00
2022-08-03T12:53:45.029Z,2.30
2022-08-03T12:54:45.415Z,1.40
2022-08-03T12:56:05.367Z,3.00
2022-08-03T12:56:46.028Z,3.10
2022-08-03T12:57:44.992Z,2.10
2022-08-03T12:58:44.999Z,2.40
2022-08-03T12:59:52.614Z,2.90
2022-08-03T13:00:45.957Z,1.50
2022-08-03T13:01:54.969Z,2.60
2022-08-03T13:02:46.443Z,3.00
2022-08-03T13:03:49.998Z,3.60
2022-08-03T13:04:45.951Z,5.70
2022-08-03T13:05:44.944Z,6.10
2022-08-03T13:06:44.967Z,4.40
2022-08-03T13:07:45.866Z,2.30
2022-08-03T13:08:44.936Z,2.30
2022-08-03T13:09:44.956Z,4.70
2022-08-03T13:10:44.947Z,3.80
2022-08-03T13:11:57.549Z,2.90
2022-08-03T13:12:45.903Z,2.00
2022-08-03T13:13:44.891Z,3.40
2022-08-03T13:14:44.888Z,3.70
2022-08-03T13:15:48.002Z,3.40
2022-08-03T13:16:44.871Z,2.10
2022-08-03T13:17:44.867Z,1.40
2022-08-03T13:18:44.857Z,2.80